Time;durP1;ratioP1;P1;durP2;ratioP2;P2;SDS_P1;SDS_P2;PMS_P1;PMS_P2;Temp;Humidity;BMP_temperature;BMP_pressure;BME280_temperature;BME280_humidity;BME280_pressure;Samples;Min_cycle;Max_cycle;Signal;HPM_P1;HPM_P2
2023/06/08 00:00:10;;;;;;;5.00;3.70;;;;;;;16.62;81.56;100201.47;105479;1259;60408;-69
2023/06/08 00:02:40;;;;;;;5.70;4.50;;;;;;;16.65;81.69;100201.21;105548;1259;60395;-68
2023/06/08 00:05:12;;;;;;;4.50;4.10;;;;;;;16.63;82.21;100202.18;105711;1254;73931;-70
2023/06/08 00:07:43;;;;;;;4.70;4.30;;;;;;;16.59;82.34;100202.48;105686;1257;69092;-71
2023/06/08 00:10:10;;;;;;;7.10;4.70;;;;;;;16.60;82.50;100202.29;105448;1254;73170;-72
2023/06/08 00:12:38;;;;;;;8.40;4.90;;;;;;;16.67;82.38;100196.83;105294;1254;284214;-73
2023/06/08 00:16:05;;;;;;;6.90;5.30;;;;;;;16.73;82.65;100194.85;102557;1295;601126;-74
2023/06/08 00:18:36;;;;;;;6.60;5.70;;;;;;;16.69;83.24;100192.52;105309;1260;60017;-70
2023/06/08 00:21:04;;;;;;;5.20;4.70;;;;;;;16.67;83.46;100187.18;105200;1265;59333;-70
2023/06/08 00:23:31;;;;;;;7.10;5.20;;;;;;;16.74;83.65;100184.30;105342;1260;71315;-70
2023/06/08 00:26:00;;;;;;;5.80;5.20;;;;;;;16.78;83.72;100184.23;105372;1259;67829;-71
2023/06/08 00:28:27;;;;;;;6.80;5.30;;;;;;;16.76;84.05;100180.95;105292;1270;72431;-67
2023/06/08 00:30:55;;;;;;;8.20;6.00;;;;;;;16.70;84.36;100176.05;105294;1257;166812;-69
2023/06/08 00:33:23;;;;;;;4.90;4.40;;;;;;;16.65;84.75;100175.03;105365;1258;59576;-70
2023/06/08 00:35:51;;;;;;;4.60;4.00;;;;;;;16.69;84.78;100175.64;105318;1260;71994;-71
2023/06/08 00:38:18;;;;;;;8.70;4.50;;;;;;;16.73;84.82;100179.96;105378;1263;70012;-70
2023/06/08 00:40:45;;;;;;;6.20;4.60;;;;;;;16.74;85.36;100184.34;105622;1256;70677;-68
2023/06/08 00:43:13;;;;;;;6.00;4.80;;;;;;;16.71;85.41;100181.51;105461;1257;59612;-69
2023/06/08 00:45:40;;;;;;;8.20;5.20;;;;;;;16.70;85.34;100178.00;105683;1258;60606;-71
2023/06/08 00:48:08;;;;;;;6.30;4.80;;;;;;;16.77;85.24;100170.77;105562;1254;71625;-70
2023/06/08 00:50:36;;;;;;;5.00;4.50;;;;;;;16.82;85.29;100160.05;105794;1257;68869;-71
2023/06/08 00:53:04;;;;;;;5.30;4.80;;;;;;;16.81;85.67;100151.28;106043;1257;72696;-69
2023/06/08 00:55:33;;;;;;;5.80;4.30;;;;;;;16.78;85.92;100152.90;106465;1257;59720;-71
2023/06/08 00:58:01;;;;;;;5.00;3.90;;;;;;;16.74;86.38;100153.02;106691;1257;60236;-70
2023/06/08 01:00:29;;;;;;;5.60;4.40;;;;;;;16.80;86.26;100151.90;106427;1257;72970;-71
2023/06/08 01:02:58;;;;;;;5.90;4.80;;;;;;;16.83;86.31;100163.23;106233;1254;70198;-69
2023/06/08 01:05:26;;;;;;;5.50;4.90;;;;;;;16.78;86.11;100167.52;106505;1257;72458;-71
2023/06/08 01:08:31;;;;;;;6.60;4.90;;;;;;;16.71;86.19;100166.95;106779;1256;59822;-69
2023/06/08 01:11:01;;;;;;;5.60;4.00;;;;;;;16.67;85.58;100170.71;106568;1254;59592;-70
2023/06/08 01:13:36;;;;;;;4.00;3.60;;;;;;;16.72;84.99;100168.15;106833;1257;72226;-69
2023/06/08 01:16:04;;;;;;;8.20;4.60;;;;;;;16.71;84.62;100163.80;106141;1255;71133;-71
2023/06/08 01:18:38;;;;;;;5.60;4.30;;;;;;;16.63;84.46;100159.23;106621;1257;71068;-70
2023/06/08 01:21:08;;;;;;;;;;;;;;;16.56;84.19;100164.86;106933;1256;60816;-69
2023/06/08 01:24:13;;;;;;;7.00;3.90;;;;;;;16.53;84.24;100165.34;106657;1254;59765;-70
2023/06/08 01:26:43;;;;;;;5.80;4.00;;;;;;;16.58;84.14;100163.85;106669;1260;71997;-67
2023/06/08 01:29:11;;;;;;;6.30;4.60;;;;;;;16.56;84.13;100168.05;106317;1257;69021;-67
2023/06/08 01:31:39;;;;;;;5.50;4.60;;;;;;;16.52;84.67;100173.63;107664;1260;72788;-71
2023/06/08 01:34:07;;;;;;;4.30;3.90;;;;;;;16.49;84.16;100175.14;108578;1254;60065;-72
2023/06/08 01:36:40;;;;;;;5.60;4.50;;;;;;;16.56;84.10;100171.60;108756;1254;58859;-72
2023/06/08 01:39:41;;;;;;;7.00;4.10;;;;;;;16.63;84.42;100172.63;108773;1254;71795;-72
2023/06/08 01:42:10;;;;;;;9.90;4.50;;;;;;;16.61;84.32;100173.81;109011;1254;69799;-71
2023/06/08 01:44:45;;;;;;;5.00;4.50;;;;;;;16.59;84.31;100179.36;108532;1253;71459;-71
2023/06/08 01:47:14;;;;;;;5.90;4.30;;;;;;;16.57;84.27;100180.92;108313;1256;60622;-71
2023/06/08 01:49:42;;;;;;;4.70;3.80;;;;;;;16.64;84.52;100183.95;108208;1254;59423;-70
2023/06/08 01:52:09;;;;;;;6.80;4.40;;;;;;;16.68;84.15;100181.73;108597;1255;71777;-72
2023/06/08 01:54:37;;;;;;;4.80;4.30;;;;;;;16.65;84.55;100184.03;108153;1254;68996;-70
2023/06/08 01:57:06;;;;;;;5.00;4.50;;;;;;;16.62;84.10;100181.55;107815;1257;71477;-71
2023/06/08 01:59:34;;;;;;;4.90;4.50;;;;;;;16.60;84.30;100183.30;107923;1257;59580;-70
2023/06/08 02:02:04;;;;;;;8.20;4.50;;;;;;;16.65;83.86;100181.19;108160;1256;59682;-72
2023/06/08 02:04:33;;;;;;;7.40;4.80;;;;;;;16.69;84.22;100185.87;108509;1258;71750;-73
2023/06/08 02:07:00;;;;;;;5.30;4.00;;;;;;;16.66;84.28;100190.15;107854;1254;69075;-73
2023/06/08 02:09:27;;;;;;;6.30;4.40;;;;;;;16.64;84.42;100187.36;108421;1253;71420;-70
2023/06/08 02:12:06;;;;;;;5.00;4.40;;;;;;;16.63;84.41;100189.44;107832;1260;60733;-71
2023/06/08 02:14:34;;;;;;;5.90;4.20;;;;;;;16.70;84.19;100185.52;105930;1260;59980;-70
2023/06/08 02:17:03;;;;;;;6.20;4.80;;;;;;;16.71;84.36;100182.20;108371;1254;72828;-70
2023/06/08 02:19:32;;;;;;;4.80;3.90;;;;;;;16.67;84.69;100183.27;108541;1259;68776;-70
2023/06/08 02:22:02;;;;;;;5.00;4.00;;;;;;;16.65;84.64;100181.79;107830;1254;73278;-69
2023/06/08 02:24:29;;;;;;;5.50;3.70;;;;;;;16.63;84.53;100181.13;107119;1258;60671;-68
2023/06/08 02:26:57;;;;;;;8.30;4.20;;;;;;;16.69;84.19;100179.27;106728;1260;59538;-67
2023/06/08 02:29:27;;;;;;;5.60;4.30;;;;;;;16.71;83.76;100182.16;105863;1258;73135;-68
2023/06/08 02:31:55;;;;;;;7.00;4.50;;;;;;;16.66;84.17;100180.45;105547;1260;70688;-71
2023/06/08 02:34:23;;;;;;;5.00;4.60;;;;;;;16.62;84.21;100182.29;105347;1260;72438;-68
2023/06/08 02:36:50;;;;;;;9.30;4.90;;;;;;;16.58;84.16;100181.35;105560;1260;60174;-70
2023/06/08 02:39:18;;;;;;;5.00;3.80;;;;;;;16.64;84.17;100183.48;105538;1255;59784;-74
2023/06/08 02:41:46;;;;;;;6.10;4.80;;;;;;;16.67;84.40;100177.86;105468;1260;72392;-71
2023/06/08 02:44:14;;;;;;;5.90;4.40;;;;;;;16.63;84.54;100174.45;105275;1261;69195;-73
2023/06/08 02:46:42;;;;;;;6.20;4.90;;;;;;;16.59;84.90;100172.19;105518;1258;73647;-72
2023/06/08 02:49:10;;;;;;;5.90;4.10;;;;;;;16.56;85.08;100170.77;105485;1261;60480;-70
2023/06/08 02:51:38;;;;;;;4.90;4.30;;;;;;;16.62;85.05;100168.58;105301;1254;59963;-72
2023/06/08 02:54:05;;;;;;;5.30;4.70;;;;;;;16.65;84.77;100169.42;105293;1260;73181;-71
2023/06/08 02:56:33;;;;;;;4.50;4.10;;;;;;;16.63;84.31;100172.87;105347;1260;71019;-70
2023/06/08 02:59:02;;;;;;;5.00;4.50;;;;;;;16.60;84.28;100170.46;105271;1257;71731;-70
2023/06/08 03:01:36;;;;;;;6.00;4.80;;;;;;;16.56;83.95;100170.23;105354;1260;60996;-72
2023/06/08 03:04:12;;;;;;;6.70;4.50;;;;;;;16.60;84.41;100168.98;105366;1257;59518;-70
2023/06/08 03:06:46;;;;;;;5.60;4.20;;;;;;;16.63;84.78;100172.67;105368;1260;73166;-69
2023/06/08 03:09:15;;;;;;;5.80;4.60;;;;;;;16.60;84.39;100178.30;105688;1260;68071;-70
2023/06/08 03:11:47;;;;;;;6.80;4.50;;;;;;;16.56;84.30;100179.67;105344;1261;73864;-70
2023/06/08 03:14:18;;;;;;;9.70;5.50;;;;;;;16.54;83.85;100180.46;105430;1259;62609;-69
2023/06/08 03:16:47;;;;;;;4.50;4.10;;;;;;;16.61;83.83;100182.06;105381;1257;59900;-69
2023/06/08 03:19:14;;;;;;;5.70;4.10;;;;;;;16.65;83.87;100185.27;105613;1256;73155;-70
2023/06/08 03:21:43;;;;;;;5.30;4.60;;;;;;;16.63;83.88;100187.20;105622;1254;70611;-69
2023/06/08 03:24:11;;;;;;;7.70;4.60;;;;;;;16.61;84.00;100186.00;105586;1257;71420;-70
2023/06/08 03:26:39;;;;;;;5.50;4.40;;;;;;;16.60;84.51;100189.16;105444;1260;60352;-72
2023/06/08 03:29:07;;;;;;;4.80;4.40;;;;;;;16.67;84.86;100186.69;105360;1254;59670;-71
2023/06/08 03:31:37;;;;;;;6.00;5.00;;;;;;;16.72;85.27;100185.84;105420;1261;73149;-71
2023/06/08 03:34:07;;;;;;;;;;;;;;;16.73;85.89;100183.08;105411;1261;69587;-70
2023/06/08 03:36:38;;;;;;;9.40;4.90;;;;;;;16.72;86.29;100183.73;105483;1258;71155;-69
2023/06/08 03:39:15;;;;;;;7.10;4.40;;;;;;;16.70;86.10;100181.42;105257;1258;59654;-70
2023/06/08 03:41:43;;;;;;;6.50;4.80;;;;;;;16.77;86.13;100184.85;105110;1258;60062;-71
2023/06/08 03:44:11;;;;;;;5.00;4.50;;;;;;;16.82;86.02;100180.64;105536;1255;71987;-71
2023/06/08 03:46:39;;;;;;;5.80;5.10;;;;;;;16.82;86.43;100180.88;105483;1267;70997;-70
2023/06/08 03:49:07;;;;;;;5.70;5.20;;;;;;;16.80;86.49;100182.30;105408;1254;71155;-72
2023/06/08 03:51:35;;;;;;;5.50;4.90;;;;;;;16.79;86.11;100183.51;105530;1260;60254;-72
2023/06/08 03:54:03;;;;;;;5.30;4.80;;;;;;;16.84;85.77;100181.45;105553;1254;59829;-70
2023/06/08 03:56:31;;;;;;;8.70;5.40;;;;;;;16.86;85.89;100180.64;105471;1263;72199;-70
2023/06/08 03:59:01;;;;;;;5.70;5.20;;;;;;;16.83;85.99;100186.09;105355;1261;68890;-71
2023/06/08 04:01:30;;;;;;;6.60;5.40;;;;;;;16.80;86.15;100185.08;105280;1258;72691;-74
2023/06/08 04:03:58;;;;;;;7.60;5.60;;;;;;;16.84;86.29;100180.08;105524;1259;63003;-74
2023/06/08 04:06:33;;;;;;;5.80;5.30;;;;;;;16.88;86.23;100182.55;105889;1254;59713;-75
2023/06/08 04:09:04;;;;;;;6.50;5.90;;;;;;;16.85;85.98;100186.29;105648;1260;73158;-75
2023/06/08 04:11:33;;;;;;;9.40;5.40;;;;;;;16.82;85.89;100188.73;105424;1261;71099;-72
2023/06/08 04:14:01;;;;;;;6.40;5.70;;;;;;;16.79;85.87;100187.05;105407;1260;71360;-72
2023/06/08 04:16:28;;;;;;;7.90;5.10;;;;;;;16.87;85.98;100185.89;105632;1254;61804;-74
2023/06/08 04:18:58;;;;;;;8.40;5.80;;;;;;;16.93;86.14;100181.74;105299;1260;59615;-75
2023/06/08 04:21:27;;;;;;;6.50;5.90;;;;;;;16.92;86.04;100183.11;105648;1254;71828;-73
2023/06/08 04:23:59;;;;;;;6.80;6.10;;;;;;;16.89;86.08;100184.32;105364;1261;68709;-73
2023/06/08 04:26:32;;;;;;;6.40;5.60;;;;;;;16.89;85.98;100181.17;105552;1257;71137;-73
2023/06/08 04:29:03;;;;;;;6.50;5.60;;;;;;;16.99;85.69;100182.55;105358;1256;61836;-73
2023/06/08 04:31:32;;;;;;;10.20;6.30;;;;;;;17.07;85.77;100176.20;105738;1254;60520;-74
2023/06/08 04:34:01;;;;;;;6.50;5.60;;;;;;;17.08;85.74;100174.27;105609;1254;73808;-73
2023/06/08 04:36:29;;;;;;;6.20;5.60;;;;;;;17.09;85.43;100174.64;105742;1254;69963;-73
2023/06/08 04:38:57;;;;;;;10.40;5.70;;;;;;;17.13;85.67;100175.55;105228;1260;71364;-73
2023/06/08 04:41:25;;;;;;;5.90;5.40;;;;;;;17.25;85.24;100178.24;105350;1261;60449;-70
2023/06/08 04:43:54;;;;;;;5.60;5.10;;;;;;;17.35;85.02;100175.17;105540;1254;60332;-71
2023/06/08 04:46:25;;;;;;;6.70;6.10;;;;;;;17.37;84.85;100167.54;105364;1254;72619;-71
2023/06/08 04:48:55;;;;;;;6.60;6.00;;;;;;;17.38;84.38;100164.80;105604;1260;68763;-73
2023/06/08 04:51:29;;;;;;;10.10;6.20;;;;;;;17.39;84.68;100162.75;105441;1254;71093;-72
2023/06/08 04:54:01;;;;;;;13.30;6.60;;;;;;;17.51;84.66;100165.27;105469;1257;60499;-71
2023/06/08 04:56:29;;;;;;;7.10;5.90;;;;;;;17.63;84.45;100173.17;105440;1260;60466;-70
2023/06/08 04:58:57;;;;;;;5.90;5.30;;;;;;;17.66;84.21;100172.90;105610;1258;72423;-70
2023/06/08 05:01:24;;;;;;;6.50;5.90;;;;;;;17.68;84.11;100175.64;105388;1260;69352;-68
2023/06/08 05:03:52;;;;;;;6.90;5.80;;;;;;;17.70;83.80;100177.29;105330;1254;72320;-74
2023/06/08 05:06:20;;;;;;;6.30;5.70;;;;;;;17.81;83.03;100182.02;105347;1258;61713;-72
2023/06/08 05:08:48;;;;;;;7.90;6.20;;;;;;;17.89;82.78;100181.31;105549;1255;60510;-72
2023/06/08 05:11:15;;;;;;;5.90;5.40;;;;;;;17.92;82.78;100183.05;105452;1254;72643;-72
2023/06/08 05:13:43;;;;;;;6.20;5.30;;;;;;;17.94;82.29;100183.64;105549;1257;69567;-72
2023/06/08 05:16:10;;;;;;;6.20;5.60;;;;;;;17.96;82.24;100183.68;105562;1257;71258;-70
2023/06/08 05:18:38;;;;;;;8.40;5.30;;;;;;;18.04;82.07;100179.84;105393;1258;62009;-71
2023/06/08 05:21:05;;;;;;;6.40;5.70;;;;;;;18.14;81.90;100180.58;105562;1255;61025;-71
2023/06/08 05:23:33;;;;;;;6.40;5.70;;;;;;;18.10;81.65;100187.70;105727;1259;73823;-76
2023/06/08 05:26:01;;;;;;;6.50;5.80;;;;;;;18.06;81.44;100190.92;105575;1254;70658;-74
2023/06/08 05:28:28;;;;;;;7.00;6.00;;;;;;;18.01;81.25;100194.84;105241;1257;72664;-71
2023/06/08 05:30:56;;;;;;;6.40;5.80;;;;;;;18.02;81.47;100195.89;105304;1253;61995;-73
2023/06/08 05:33:23;;;;;;;6.30;5.70;;;;;;;18.05;81.40;100201.75;105198;1260;60382;-74
2023/06/08 05:35:50;;;;;;;6.50;5.70;;;;;;;18.03;81.43;100206.88;105314;1254;72219;-71
2023/06/08 05:38:19;;;;;;;9.50;6.20;;;;;;;17.98;81.74;100208.62;105521;1260;69276;-73
2023/06/08 05:40:47;;;;;;;6.00;5.40;;;;;;;17.94;81.92;100211.13;105295;1256;71691;-74
2023/06/08 05:43:15;;;;;;;6.30;5.60;;;;;;;17.99;81.80;100211.80;105537;1261;60774;-74
2023/06/08 05:45:44;;;;;;;6.00;5.40;;;;;;;17.99;81.47;100216.73;105254;1254;60655;-71
2023/06/08 05:48:12;;;;;;;10.00;6.50;;;;;;;17.96;81.53;100215.94;105419;1254;72691;-77
2023/06/08 05:50:40;;;;;;;6.80;6.20;;;;;;;17.91;81.67;100219.61;105347;1253;70099;-75
2023/06/08 05:53:07;;;;;;;9.60;5.40;;;;;;;17.87;81.48;100227.48;105784;1254;72477;-75
2023/06/08 05:55:36;;;;;;;8.80;6.00;;;;;;;17.90;81.11;100231.23;105267;1262;60889;-74
2023/06/08 05:58:03;;;;;;;6.70;6.00;;;;;;;17.92;81.33;100236.35;105383;1254;60444;-72
2023/06/08 06:00:31;;;;;;;7.40;6.60;;;;;;;17.91;81.40;100239.00;105789;1254;72156;-75
2023/06/08 06:03:00;;;;;;;6.70;5.90;;;;;;;17.88;81.19;100241.27;105479;1256;70014;-77
2023/06/08 06:05:30;;;;;;;7.80;6.50;;;;;;;17.88;81.46;100240.73;105417;1259;72675;-74
2023/06/08 06:07:58;;;;;;;9.60;6.30;;;;;;;17.96;81.30;100243.72;105481;1257;61074;-72
2023/06/08 06:10:25;;;;;;;7.20;6.50;;;;;;;18.00;81.29;100240.24;105995;1254;60447;-79
2023/06/08 06:12:53;;;;;;;10.90;6.80;;;;;;;18.04;81.59;100239.44;105865;1254;75367;-83
2023/06/08 06:15:21;;;;;;;9.00;6.70;;;;;;;18.08;81.70;100235.59;106047;1260;70357;-77
2023/06/08 06:17:48;;;;;;;6.70;6.10;;;;;;;18.14;81.43;100233.58;105973;1259;71622;-76
2023/06/08 06:20:16;;;;;;;8.50;6.50;;;;;;;18.26;81.27;100231.34;106546;1256;60484;-81
2023/06/08 06:22:44;;;;;;;8.80;6.10;;;;;;;18.39;80.92;100232.59;105968;1254;60481;-82
2023/06/08 06:25:15;;;;;;;7.70;5.80;;;;;;;18.44;80.72;100233.70;106605;1254;73904;-83
2023/06/08 06:27:42;;;;;;;7.40;5.90;;;;;;;18.46;79.91;100231.13;106884;1254;70334;-85
2023/06/08 06:30:15;;;;;;;7.10;6.40;;;;;;;18.45;79.58;100230.35;107336;1253;73552;-83
2023/06/08 06:32:43;;;;;;;7.60;5.70;;;;;;;18.45;79.33;100230.84;107347;1258;64991;-81
2023/06/08 06:35:10;;;;;;;8.40;6.30;;;;;;;18.52;78.91;100223.10;106961;1255;61021;-85
2023/06/08 06:37:38;;;;;;;10.00;6.20;;;;;;;18.58;78.10;100226.81;107368;1253;72755;-82
2023/06/08 06:40:06;;;;;;;9.40;6.30;;;;;;;18.56;78.06;100225.00;107253;1259;69378;-79
2023/06/08 06:42:36;;;;;;;8.30;5.90;;;;;;;18.61;78.11;100228.10;106216;1257;71134;-74
2023/06/08 06:45:12;;;;;;;8.60;6.20;;;;;;;18.66;78.45;100229.25;105669;1259;60560;-74
2023/06/08 06:47:40;;;;;;;6.60;5.30;;;;;;;18.71;78.61;100230.39;105842;1255;60399;-73
2023/06/08 06:50:08;;;;;;;9.10;6.00;;;;;;;18.82;78.39;100233.34;105467;1261;73897;-73
2023/06/08 06:52:35;;;;;;;8.00;6.30;;;;;;;18.88;77.99;100234.70;105531;1262;69616;-76
2023/06/08 06:55:04;;;;;;;7.90;6.10;;;;;;;18.89;77.85;100238.30;105407;1254;71559;-74
2023/06/08 06:57:32;;;;;;;8.90;6.50;;;;;;;18.89;77.58;100241.42;105498;1257;60534;-73
2023/06/08 07:00:00;;;;;;;6.90;5.90;;;;;;;18.88;77.68;100243.31;105646;1254;60531;-75
2023/06/08 07:02:28;;;;;;;15.30;6.30;;;;;;;18.85;77.17;100241.95;105506;1259;73983;-74
2023/06/08 07:04:58;;;;;;;9.30;5.60;;;;;;;18.90;76.80;100246.25;105723;1255;69997;-74
2023/06/08 07:07:28;;;;;;;6.60;5.50;;;;;;;18.94;76.72;100244.71;105823;1256;70209;-74
2023/06/08 07:09:56;;;;;;;27.10;8.40;;;;;;;18.95;76.72;100242.85;105463;1254;60473;-75
2023/06/08 07:12:23;;;;;;;15.90;6.30;;;;;;;18.97;76.79;100239.03;105707;1254;60473;-74
2023/06/08 07:14:51;;;;;;;10.20;6.60;;;;;;;18.99;76.95;100238.20;105610;1260;72125;-74
2023/06/08 07:17:18;;;;;;;7.50;6.80;;;;;;;19.02;77.03;100233.63;105724;1260;70000;-72
2023/06/08 07:19:47;;;;;;;7.30;6.00;;;;;;;19.17;76.63;100231.84;105417;1257;73016;-72
2023/06/08 07:22:15;;;;;;;6.90;6.10;;;;;;;19.28;76.14;100231.02;105849;1254;60515;-72
2023/06/08 07:25:04;;;;;;;9.00;6.70;;;;;;;19.35;75.34;100230.58;105773;1254;60441;-72
2023/06/08 07:27:52;;;;;;;6.60;5.70;;;;;;;19.37;73.99;100226.09;105370;1260;73875;-71
2023/06/08 07:30:19;;;;;;;6.30;5.80;;;;;;;19.41;73.84;100230.80;105430;1259;68788;-71
2023/06/08 07:32:48;;;;;;;6.30;5.60;;;;;;;19.42;73.35;100231.63;105420;1254;71434;-72
2023/06/08 07:35:16;;;;;;;7.80;5.50;;;;;;;19.44;74.00;100231.86;105651;1259;60418;-73
2023/06/08 07:37:43;;;;;;;5.60;4.80;;;;;;;19.53;74.25;100234.09;105463;1259;60508;-75
2023/06/08 07:40:11;;;;;;;7.50;6.00;;;;;;;19.68;73.38;100231.49;105618;1254;73857;-73
2023/06/08 07:42:39;;;;;;;6.90;6.20;;;;;;;19.79;73.38;100230.80;105721;1259;67846;-72
2023/06/08 07:45:07;;;;;;;6.10;5.50;;;;;;;19.85;72.68;100228.85;105537;1254;72614;-74
2023/06/08 07:47:35;;;;;;;6.80;6.10;;;;;;;19.88;72.10;100227.84;105991;1254;60558;-72
2023/06/08 07:50:05;;;;;;;6.40;5.80;;;;;;;19.93;72.51;100225.56;105553;1257;60521;-74
2023/06/08 07:52:34;;;;;;;6.30;5.70;;;;;;;19.96;71.81;100227.08;105841;1254;72733;-74
2023/06/08 07:55:01;;;;;;;7.00;6.20;;;;;;;20.01;71.80;100227.04;106511;1255;70154;-74
2023/06/08 07:57:30;;;;;;;8.90;5.60;;;;;;;20.09;71.63;100225.99;106465;1256;72353;-72
2023/06/08 07:59:57;;;;;;;6.80;5.80;;;;;;;20.14;71.15;100222.23;106447;1255;60513;-74
2023/06/08 08:02:25;;;;;;;7.50;6.10;;;;;;;20.19;70.73;100225.62;106978;1257;61906;-75
2023/06/08 08:04:53;;;;;;;8.00;6.10;;;;;;;20.28;71.17;100224.39;107239;1256;72302;-73
2023/06/08 08:07:21;;;;;;;8.00;5.80;;;;;;;20.45;70.98;100227.23;106312;1263;70610;-72
2023/06/08 08:09:48;;;;;;;6.80;6.10;;;;;;;20.57;70.71;100226.69;106817;1256;73161;-75
2023/06/08 08:12:17;;;;;;;6.30;5.00;;;;;;;20.65;70.36;100229.70;106772;1259;60364;-73
2023/06/08 08:14:44;;;;;;;8.30;6.40;;;;;;;20.70;69.45;100230.95;107197;1256;60422;-74
2023/06/08 08:17:12;;;;;;;10.00;6.20;;;;;;;20.75;69.16;100232.67;107127;1256;72678;-75
2023/06/08 08:19:40;;;;;;;6.50;5.40;;;;;;;20.77;69.10;100233.06;107258;1259;69223;-74
2023/06/08 08:22:07;;;;;;;7.50;6.10;;;;;;;20.79;68.79;100236.36;106739;1254;72721;-74
2023/06/08 08:24:36;;;;;;;6.60;5.50;;;;;;;20.84;68.63;100239.56;107098;1259;60593;-74
2023/06/08 08:27:04;;;;;;;7.30;5.60;;;;;;;20.84;67.80;100242.09;107054;1253;60941;-73
2023/06/08 08:29:32;;;;;;;6.70;5.20;;;;;;;20.79;66.81;100242.20;106755;1253;72695;-74
2023/06/08 08:31:59;;;;;;;5.60;4.90;;;;;;;20.75;66.15;100244.63;107763;1254;69304;-75
2023/06/08 08:34:27;;;;;;;7.90;5.50;;;;;;;20.72;65.39;100243.25;108006;1255;71082;-73
2023/06/08 08:36:55;;;;;;;6.20;5.00;;;;;;;20.68;64.65;100243.46;107878;1253;60421;-74
2023/06/08 08:39:22;;;;;;;6.90;5.60;;;;;;;20.62;64.16;100239.97;107821;1253;59251;-72
2023/06/08 08:41:53;;;;;;;5.60;4.90;;;;;;;20.54;64.61;100237.86;107609;1260;73681;-74
2023/06/08 08:44:21;;;;;;;7.70;6.30;;;;;;;20.53;64.95;100237.71;108426;1253;69206;-76
2023/06/08 08:46:48;;;;;;;7.70;5.80;;;;;;;20.59;65.52;100236.64;108603;1253;71544;-76
2023/06/08 08:49:17;;;;;;;6.70;5.40;;;;;;;20.66;65.45;100235.45;109060;1254;59999;-76
2023/06/08 08:51:50;;;;;;;9.20;5.80;;;;;;;20.79;65.30;100245.31;108539;1253;58805;-74
2023/06/08 08:54:25;;;;;;;6.70;5.20;;;;;;;20.88;65.04;100242.34;108722;1253;72712;-76
2023/06/08 08:56:55;;;;;;;6.70;5.40;;;;;;;20.97;65.25;100243.36;108213;1254;68981;-74
2023/06/08 08:59:23;;;;;;;8.30;5.30;;;;;;;21.08;65.02;100238.52;108238;1253;71232;-75
2023/06/08 09:01:50;;;;;;;6.80;5.00;;;;;;;21.19;64.54;100242.12;108329;1254;60503;-76
2023/06/08 09:04:18;;;;;;;6.80;5.10;;;;;;;21.30;64.14;100244.48;108506;1254;58867;-74
2023/06/08 09:06:48;;;;;;;5.90;4.90;;;;;;;21.45;63.94;100239.79;108582;1254;72695;-73
2023/06/08 09:09:16;;;;;;;6.10;5.50;;;;;;;21.65;63.74;100235.92;108217;1253;68793;-73
2023/06/08 09:11:58;;;;;;;8.20;5.60;;;;;;;21.84;63.02;100234.28;108470;1256;71422;-75
2023/06/08 09:14:26;;;;;;;5.90;5.40;;;;;;;22.05;62.32;100229.06;108130;1253;60533;-74
2023/06/08 09:16:54;;;;;;;8.00;4.90;;;;;;;22.21;62.37;100227.40;107953;1257;59138;-74
2023/06/08 09:19:22;;;;;;;10.20;5.50;;;;;;;22.39;62.02;100232.63;108262;1254;72635;-75
2023/06/08 09:21:50;;;;;;;5.60;5.00;;;;;;;22.55;61.76;100229.30;108735;1253;70320;-74
2023/06/08 09:24:19;;;;;;;5.70;5.10;;;;;;;22.69;61.21;100228.88;108541;1254;71573;-73
2023/06/08 09:26:55;;;;;;;6.20;5.60;;;;;;;22.85;61.39;100230.16;108666;1254;59205;-74
2023/06/08 09:29:37;;;;;;;6.40;5.40;;;;;;;23.00;60.56;100225.65;108715;1254;58105;-75
2023/06/08 09:32:08;;;;;;;8.10;5.90;;;;;;;23.08;60.50;100228.30;108375;1254;72705;-75
2023/06/08 09:34:56;;;;;;;6.50;5.70;;;;;;;23.12;59.83;100228.05;108200;1254;68917;-77
2023/06/08 09:37:31;;;;;;;6.60;5.30;;;;;;;23.12;60.00;100230.11;108180;1256;71422;-74
2023/06/08 09:40:00;;;;;;;6.70;5.30;;;;;;;23.06;59.80;100228.05;108436;1256;61133;-75
2023/06/08 09:42:50;;;;;;;6.20;5.40;;;;;;;22.99;59.59;100230.02;106459;1259;60537;-75
2023/06/08 09:45:18;;;;;;;7.20;5.10;;;;;;;22.92;59.61;100231.09;105769;1254;72740;-75
2023/06/08 09:47:46;;;;;;;7.00;5.20;;;;;;;22.89;59.65;100226.40;105492;1253;70066;-75
2023/06/08 09:50:15;;;;;;;6.50;4.90;;;;;;;22.83;59.03;100217.34;105550;1254;71413;-75
2023/06/08 09:52:42;;;;;;;8.90;5.90;;;;;;;22.78;59.77;100216.26;105485;1256;60483;-75
2023/06/08 09:55:10;;;;;;;12.60;6.40;;;;;;;22.75;60.97;100216.89;105217;1254;60533;-75
2023/06/08 09:57:38;;;;;;;7.30;5.60;;;;;;;22.75;61.31;100213.42;105272;1254;72571;-76
2023/06/08 10:00:17;;;;;;;7.00;5.00;;;;;;;22.78;61.36;100214.09;105594;1256;70314;-73
2023/06/08 10:02:49;;;;;;;8.80;5.60;;;;;;;22.81;61.23;100210.67;105764;1256;71272;-75
2023/06/08 10:05:17;;;;;;;7.20;5.70;;;;;;;22.80;61.44;100210.86;105644;1260;60546;-74
2023/06/08 10:07:47;;;;;;;5.90;5.40;;;;;;;22.83;60.96;100210.08;105596;1254;62062;-74
2023/06/08 10:10:18;;;;;;;7.20;6.20;;;;;;;22.90;60.48;100208.83;105729;1253;73823;-75
2023/06/08 10:12:45;;;;;;;6.80;6.10;;;;;;;22.95;60.78;100210.93;105656;1259;68929;-76
2023/06/08 10:15:13;;;;;;;11.90;6.00;;;;;;;23.02;60.97;100209.20;105776;1253;72672;-75
2023/06/08 10:17:40;;;;;;;9.70;6.20;;;;;;;23.12;60.75;100210.35;105594;1254;61212;-74
2023/06/08 10:20:12;;;;;;;7.50;6.50;;;;;;;23.26;60.59;100206.88;105642;1253;60307;-74
2023/06/08 10:22:40;;;;;;;9.00;5.80;;;;;;;23.42;60.23;100203.77;105676;1253;73865;-74
2023/06/08 10:25:09;;;;;;;7.60;5.90;;;;;;;23.56;59.65;100199.33;105479;1260;69212;-75
2023/06/08 10:27:36;;;;;;;6.80;5.60;;;;;;;23.70;59.80;100196.01;105604;1254;72704;-75
2023/06/08 10:30:05;;;;;;;6.80;4.80;;;;;;;23.81;59.36;100192.27;105834;1256;60405;-75
2023/06/08 10:32:34;;;;;;;8.60;6.10;;;;;;;23.90;59.22;100194.75;105922;1254;60482;-75
2023/06/08 10:35:04;;;;;;;7.20;6.00;;;;;;;23.96;59.23;100192.52;105631;1260;73954;-74
2023/06/08 10:37:35;;;;;;;7.50;6.10;;;;;;;24.16;59.15;100188.42;105702;1257;70618;-74
2023/06/08 10:40:08;;;;;;;6.60;5.70;;;;;;;24.52;59.67;100189.61;105676;1257;74716;-74
2023/06/08 10:42:36;;;;;;;6.40;5.60;;;;;;;25.09;58.70;100190.48;105818;1254;60645;-73
2023/06/08 10:45:04;;;;;;;7.70;5.90;;;;;;;25.66;57.25;100187.54;105275;1253;60607;-73
2023/06/08 10:47:35;;;;;;;7.10;5.60;;;;;;;26.11;55.85;100178.71;105667;1259;73851;-74
2023/06/08 10:50:05;;;;;;;7.00;6.30;;;;;;;26.43;54.64;100176.37;105329;1253;70851;-72
2023/06/08 10:52:45;;;;;;;41.70;11.10;;;;;;;26.67;53.86;100176.31;105663;1253;72972;-73
2023/06/08 10:55:13;;;;;;;35.20;9.20;;;;;;;26.92;52.82;100180.31;105641;1256;60511;-76
2023/06/08 10:57:47;;;;;;;19.00;7.60;;;;;;;27.16;52.61;100175.22;105727;1257;60365;-77
2023/06/08 11:00:31;;;;;;;14.50;6.60;;;;;;;27.53;52.17;100175.06;105663;1259;73866;-75
2023/06/08 11:03:04;;;;;;;11.90;5.50;;;;;;;27.89;49.90;100172.23;105458;1254;70718;-74
2023/06/08 11:05:36;;;;;;;9.60;5.30;;;;;;;28.12;49.28;100173.92;105826;1257;71522;-74
2023/06/08 11:08:07;;;;;;;7.00;5.70;;;;;;;28.22;48.84;100176.86;105804;1259;60418;-74
2023/06/08 11:10:36;;;;;;;6.20;5.60;;;;;;;28.16;47.61;100167.14;105675;1259;60423;-72
2023/06/08 11:13:16;;;;;;;5.40;4.90;;;;;;;27.94;47.70;100166.28;105737;1255;73872;-74
2023/06/08 11:15:46;;;;;;;6.70;5.30;;;;;;;27.62;47.77;100165.52;105805;1253;68718;-74
2023/06/08 11:18:14;;;;;;;7.50;5.10;;;;;;;27.43;47.64;100169.32;105810;1253;73871;-74
2023/06/08 11:20:42;;;;;;;5.80;5.20;;;;;;;27.37;47.85;100164.13;105713;1253;60487;-74
2023/06/08 11:23:11;;;;;;;8.90;5.20;;;;;;;27.39;47.80;100161.84;105825;1254;60411;-74
2023/06/08 11:25:39;;;;;;;5.60;5.10;;;;;;;27.40;48.14;100159.55;105767;1259;73908;-74
2023/06/08 11:28:10;;;;;;;5.80;5.20;;;;;;;27.44;48.33;100155.35;105568;1254;68443;-73